sensor_id;sensor_type;location;lat;lon;timestamp;pressure;altitude;pressure_sealevel;temperature;humidity
11017;BME280;54687;50.800;6.772;2023-04-15T00:01:21;61046.78;;;-144.06;53.63
11017;BME280;54687;50.800;6.772;2023-04-15T00:03:50;61025.84;;;-144.06;53.63
11017;BME280;54687;50.800;6.772;2023-04-15T00:06:18;61027.94;;;-144.06;53.54
11017;BME280;54687;50.800;6.772;2023-04-15T00:08:44;61038.41;;;-144.06;53.59
11017;BME280;54687;50.800;6.772;2023-04-15T00:11:12;61053.09;;;-144.06;53.52
11017;BME280;54687;50.800;6.772;2023-04-15T00:13:39;61059.38;;;-144.06;53.83
11017;BME280;54687;50.800;6.772;2023-04-15T00:16:08;61051.00;;;-144.06;53.59
11017;BME280;54687;50.800;6.772;2023-04-15T00:18:36;61000.69;;;-144.06;53.80
11017;BME280;54687;50.800;6.772;2023-04-15T00:21:03;61055.19;;;-144.06;53.58
11017;BME280;54687;50.800;6.772;2023-04-15T00:23:30;61071.94;;;-144.06;53.47
11017;BME280;54687;50.800;6.772;2023-04-15T00:25:56;61071.94;;;-144.06;53.86
11017;BME280;54687;50.800;6.772;2023-04-15T00:28:24;61034.22;;;-144.06;53.78
11017;BME280;54687;50.800;6.772;2023-04-15T00:30:51;61076.13;;;-144.06;54.04
11017;BME280;54687;50.800;6.772;2023-04-15T00:33:18;61042.59;;;-144.06;53.83
11017;BME280;54687;50.800;6.772;2023-04-15T00:35:45;61076.13;;;-144.06;53.94
11017;BME280;54687;50.800;6.772;2023-04-15T00:38:11;61128.53;;;-144.06;54.03
11017;BME280;54687;50.800;6.772;2023-04-15T00:40:38;61076.13;;;-144.06;54.04
11017;BME280;54687;50.800;6.772;2023-04-15T00:43:05;61067.75;;;-144.06;54.47
11017;BME280;54687;50.800;6.772;2023-04-15T00:45:33;61059.38;;;-144.06;54.33
11017;BME280;54687;50.800;6.772;2023-04-15T00:48:00;61063.56;;;-144.06;54.82
11017;BME280;54687;50.800;6.772;2023-04-15T00:50:27;61019.53;;;-144.06;54.68
11017;BME280;54687;50.800;6.772;2023-04-15T00:52:53;61046.78;;;-144.06;54.50
11017;BME280;54687;50.800;6.772;2023-04-15T00:55:20;61071.94;;;-144.06;54.89
11017;BME280;54687;50.800;6.772;2023-04-15T00:57:47;61067.75;;;-144.06;55.08
11017;BME280;54687;50.800;6.772;2023-04-15T01:00:14;61090.81;;;-144.06;55.58
11017;BME280;54687;50.800;6.772;2023-04-15T01:02:42;61017.44;;;-144.06;55.37
11017;BME280;54687;50.800;6.772;2023-04-15T01:05:09;61080.34;;;-144.06;55.29
11017;BME280;54687;50.800;6.772;2023-04-15T01:07:36;61034.22;;;-144.06;55.49
11017;BME280;54687;50.800;6.772;2023-04-15T01:10:02;61063.56;;;-144.06;55.48
11017;BME280;54687;50.800;6.772;2023-04-15T01:12:31;61044.69;;;-144.06;55.34
11017;BME280;54687;50.800;6.772;2023-04-15T01:14:59;61063.56;;;-144.06;55.33
11017;BME280;54687;50.800;6.772;2023-04-15T01:17:26;61071.94;;;-144.06;55.19
11017;BME280;54687;50.800;6.772;2023-04-15T01:19:56;61055.19;;;-144.06;55.50
11017;BME280;54687;50.800;6.772;2023-04-15T01:22:23;61088.72;;;-144.06;55.52
11017;BME280;54687;50.800;6.772;2023-04-15T01:24:55;61063.56;;;-144.06;55.51
11017;BME280;54687;50.800;6.772;2023-04-15T01:27:27;61048.88;;;-144.06;55.47
11017;BME280;54687;50.800;6.772;2023-04-15T01:29:54;61059.38;;;-144.06;55.82
11017;BME280;54687;50.800;6.772;2023-04-15T01:32:21;61067.75;;;-144.06;55.57
11017;BME280;54687;50.800;6.772;2023-04-15T01:34:47;61046.78;;;-144.06;56.10
11017;BME280;54687;50.800;6.772;2023-04-15T01:37:14;61034.22;;;-144.06;56.14
11017;BME280;54687;50.800;6.772;2023-04-15T01:39:40;61053.09;;;-144.06;55.82
11017;BME280;54687;50.800;6.772;2023-04-15T01:42:07;61046.78;;;-144.06;56.12
11017;BME280;54687;50.800;6.772;2023-04-15T01:44:35;61074.03;;;-144.06;56.08
11017;BME280;54687;50.800;6.772;2023-04-15T01:47:01;61076.13;;;-144.06;55.96
11017;BME280;54687;50.800;6.772;2023-04-15T01:49:28;61065.66;;;-144.06;56.15
11017;BME280;54687;50.800;6.772;2023-04-15T01:51:54;61080.34;;;-144.06;56.31
11017;BME280;54687;50.800;6.772;2023-04-15T01:54:21;61059.38;;;-144.06;56.21
11017;BME280;54687;50.800;6.772;2023-04-15T01:56:47;61063.56;;;-144.06;56.14
11017;BME280;54687;50.800;6.772;2023-04-15T01:59:14;61063.56;;;-144.06;56.17
11017;BME280;54687;50.800;6.772;2023-04-15T02:01:42;61088.72;;;-144.06;56.26
11017;BME280;54687;50.800;6.772;2023-04-15T02:04:09;61071.94;;;-144.06;56.34
11017;BME280;54687;50.800;6.772;2023-04-15T02:06:41;61067.75;;;-144.06;56.24
11017;BME280;54687;50.800;6.772;2023-04-15T02:09:07;61042.59;;;-144.06;56.04
11017;BME280;54687;50.800;6.772;2023-04-15T02:11:34;61074.03;;;-144.06;56.10
11017;BME280;54687;50.800;6.772;2023-04-15T02:14:01;61071.94;;;-144.06;55.86
11017;BME280;54687;50.800;6.772;2023-04-15T02:16:28;61084.53;;;-144.06;56.19
11017;BME280;54687;50.800;6.772;2023-04-15T02:18:56;61051.00;;;-144.06;56.43
11017;BME280;54687;50.800;6.772;2023-04-15T02:21:22;61042.59;;;-144.06;56.46
11017;BME280;54687;50.800;6.772;2023-04-15T02:23:49;61053.09;;;-144.06;56.21
11017;BME280;54687;50.800;6.772;2023-04-15T02:26:16;61063.56;;;-144.06;56.54
11017;BME280;54687;50.800;6.772;2023-04-15T02:28:43;61017.44;;;-144.06;56.58
11017;BME280;54687;50.800;6.772;2023-04-15T02:31:10;61080.34;;;-144.06;56.23
11017;BME280;54687;50.800;6.772;2023-04-15T02:33:36;61048.88;;;-144.06;56.12
11017;BME280;54687;50.800;6.772;2023-04-15T02:36:05;61097.09;;;-144.06;56.19
11017;BME280;54687;50.800;6.772;2023-04-15T02:38:31;61055.19;;;-144.06;56.05
11017;BME280;54687;50.800;6.772;2023-04-15T02:40:58;61051.00;;;-144.06;56.30
11017;BME280;54687;50.800;6.772;2023-04-15T02:43:24;61040.50;;;-144.06;56.34
11017;BME280;54687;50.800;6.772;2023-04-15T02:45:52;61090.81;;;-144.06;56.31
11017;BME280;54687;50.800;6.772;2023-04-15T02:48:18;61053.09;;;-144.06;56.70
11017;BME280;54687;50.800;6.772;2023-04-15T02:50:45;61084.53;;;-144.06;56.52
11017;BME280;54687;50.800;6.772;2023-04-15T02:53:13;61040.50;;;-144.06;56.57
11017;BME280;54687;50.800;6.772;2023-04-15T02:55:40;61086.63;;;-144.06;56.49
11017;BME280;54687;50.800;6.772;2023-04-15T02:58:07;61086.63;;;-144.06;56.57
11017;BME280;54687;50.800;6.772;2023-04-15T03:00:33;61059.38;;;-144.06;56.21
11017;BME280;54687;50.800;6.772;2023-04-15T03:03:02;61063.56;;;-144.06;56.04
11017;BME280;54687;50.800;6.772;2023-04-15T03:05:29;61063.56;;;-144.06;56.46
11017;BME280;54687;50.800;6.772;2023-04-15T03:07:55;61095.00;;;-144.06;56.70
11017;BME280;54687;50.800;6.772;2023-04-15T03:10:23;61095.00;;;-144.06;56.75
11017;BME280;54687;50.800;6.772;2023-04-15T03:12:50;61048.88;;;-144.06;56.96
11017;BME280;54687;50.800;6.772;2023-04-15T03:15:16;61074.03;;;-144.06;57.32
11017;BME280;54687;50.800;6.772;2023-04-15T03:17:43;61084.53;;;-144.06;56.90
11017;BME280;54687;50.800;6.772;2023-04-15T03:20:10;61084.53;;;-144.06;57.24
11017;BME280;54687;50.800;6.772;2023-04-15T03:22:36;61038.41;;;-144.06;56.96
11017;BME280;54687;50.800;6.772;2023-04-15T03:25:03;61088.72;;;-144.06;56.75
11017;BME280;54687;50.800;6.772;2023-04-15T03:27:31;61046.78;;;-144.06;56.94
11017;BME280;54687;50.800;6.772;2023-04-15T03:29:58;61080.34;;;-144.06;56.77
11017;BME280;54687;50.800;6.772;2023-04-15T03:32:24;61059.38;;;-144.06;56.93
11017;BME280;54687;50.800;6.772;2023-04-15T03:34:51;61086.63;;;-144.06;56.78
11017;BME280;54687;50.800;6.772;2023-04-15T03:37:18;61055.19;;;-144.06;56.54
11017;BME280;54687;50.800;6.772;2023-04-15T03:39:45;61071.94;;;-144.06;56.54
11017;BME280;54687;50.800;6.772;2023-04-15T03:42:11;61065.66;;;-144.06;56.74
11017;BME280;54687;50.800;6.772;2023-04-15T03:44:39;61059.38;;;-144.06;56.60
11017;BME280;54687;50.800;6.772;2023-04-15T03:47:06;61084.53;;;-144.06;56.87
11017;BME280;54687;50.800;6.772;2023-04-15T03:49:33;61038.41;;;-144.06;57.07
11017;BME280;54687;50.800;6.772;2023-04-15T03:51:59;61097.09;;;-144.06;56.61
11017;BME280;54687;50.800;6.772;2023-04-15T03:54:26;61061.47;;;-144.06;57.39
11017;BME280;54687;50.800;6.772;2023-04-15T03:56:52;61057.28;;;-144.06;57.17
11017;BME280;54687;50.800;6.772;2023-04-15T03:59:19;61103.38;;;-144.06;57.50
11017;BME280;54687;50.800;6.772;2023-04-15T04:01:47;61065.66;;;-144.06;56.83
11017;BME280;54687;50.800;6.772;2023-04-15T04:04:13;61051.00;;;-144.06;56.76
11017;BME280;54687;50.800;6.772;2023-04-15T04:06:40;61069.84;;;-144.06;57.04
11017;BME280;54687;50.800;6.772;2023-04-15T04:09:07;61101.28;;;-144.06;56.97
11017;BME280;54687;50.800;6.772;2023-04-15T04:11:33;61061.47;;;-144.06;56.94
11017;BME280;54687;50.800;6.772;2023-04-15T04:14:00;61046.78;;;-144.06;57.38
11017;BME280;54687;50.800;6.772;2023-04-15T04:16:26;61048.88;;;-144.06;57.29
11017;BME280;54687;50.800;6.772;2023-04-15T04:18:54;61067.75;;;-144.06;57.40
11017;BME280;54687;50.800;6.772;2023-04-15T04:21:21;61078.25;;;-144.06;57.32
11017;BME280;54687;50.800;6.772;2023-04-15T04:23:47;61071.94;;;-144.06;57.73
11017;BME280;54687;50.800;6.772;2023-04-15T04:26:14;61040.50;;;-144.06;57.61
11017;BME280;54687;50.800;6.772;2023-04-15T04:28:40;61071.94;;;-144.06;57.60
11017;BME280;54687;50.800;6.772;2023-04-15T04:31:07;61040.50;;;-144.06;57.34
11017;BME280;54687;50.800;6.772;2023-04-15T04:33:34;61088.72;;;-144.06;57.81
11017;BME280;54687;50.800;6.772;2023-04-15T04:36:02;61080.34;;;-144.06;57.70
11017;BME280;54687;50.800;6.772;2023-04-15T04:38:28;61040.50;;;-144.06;57.27
11017;BME280;54687;50.800;6.772;2023-04-15T04:40:55;61071.94;;;-144.06;57.17
11017;BME280;54687;50.800;6.772;2023-04-15T04:43:22;61055.19;;;-144.06;57.36
11017;BME280;54687;50.800;6.772;2023-04-15T04:45:48;61101.28;;;-144.06;57.19
11017;BME280;54687;50.800;6.772;2023-04-15T04:48:15;61036.31;;;-144.06;57.36
11017;BME280;54687;50.800;6.772;2023-04-15T04:50:41;61067.75;;;-144.06;57.61
11017;BME280;54687;50.800;6.772;2023-04-15T04:53:10;61038.41;;;-144.06;57.73
11017;BME280;54687;50.800;6.772;2023-04-15T04:55:36;61071.94;;;-144.06;57.52
11017;BME280;54687;50.800;6.772;2023-04-15T04:58:03;61030.03;;;-144.06;57.31
11017;BME280;54687;50.800;6.772;2023-04-15T05:00:29;61071.94;;;-144.06;57.03
11017;BME280;54687;50.800;6.772;2023-04-15T05:02:56;61015.34;;;-144.06;57.28
11017;BME280;54687;50.800;6.772;2023-04-15T05:05:22;61059.38;;;-144.06;56.95
11017;BME280;54687;50.800;6.772;2023-04-15T05:07:49;61130.66;;;-144.06;57.09
11017;BME280;54687;50.800;6.772;2023-04-15T05:10:17;61034.22;;;-144.06;56.64
11017;BME280;54687;50.800;6.772;2023-04-15T05:12:44;61074.03;;;-144.06;56.61
11017;BME280;54687;50.800;6.772;2023-04-15T05:15:11;61071.94;;;-144.06;56.75
11017;BME280;54687;50.800;6.772;2023-04-15T05:17:37;61055.19;;;-144.06;56.22
11017;BME280;54687;50.800;6.772;2023-04-15T05:20:05;61126.44;;;-144.06;55.55
11017;BME280;54687;50.800;6.772;2023-04-15T05:22:32;61055.19;;;-144.06;55.55
11017;BME280;54687;50.800;6.772;2023-04-15T05:24:58;61055.19;;;-144.06;55.06
11017;BME280;54687;50.800;6.772;2023-04-15T05:27:26;61084.53;;;-144.06;55.18
11017;BME280;54687;50.800;6.772;2023-04-15T05:29:53;61055.19;;;-144.06;54.99
11017;BME280;54687;50.800;6.772;2023-04-15T05:32:20;61025.84;;;-144.06;55.55
11017;BME280;54687;50.800;6.772;2023-04-15T05:34:47;61065.66;;;-144.06;55.34
11017;BME280;54687;50.800;6.772;2023-04-15T05:37:14;61074.03;;;-144.06;54.94
11017;BME280;54687;50.800;6.772;2023-04-15T05:39:40;61063.56;;;-144.06;54.69
11017;BME280;54687;50.800;6.772;2023-04-15T05:42:07;61063.56;;;-144.06;54.68
11017;BME280;54687;50.800;6.772;2023-04-15T05:44:35;61067.75;;;-144.06;54.55
11017;BME280;54687;50.800;6.772;2023-04-15T05:47:01;61055.19;;;-144.06;53.86
11017;BME280;54687;50.800;6.772;2023-04-15T05:49:29;61017.44;;;-144.06;53.33
11017;BME280;54687;50.800;6.772;2023-04-15T05:51:56;61055.19;;;-144.06;52.76
11017;BME280;54687;50.800;6.772;2023-04-15T05:54:22;61038.41;;;-144.06;52.83
11017;BME280;54687;50.800;6.772;2023-04-15T05:56:49;61063.56;;;-144.06;52.85
11017;BME280;54687;50.800;6.772;2023-04-15T05:59:16;61048.88;;;-144.06;52.97
11017;BME280;54687;50.800;6.772;2023-04-15T06:01:44;61009.06;;;-144.06;52.45
11017;BME280;54687;50.800;6.772;2023-04-15T06:04:10;61000.69;;;-144.06;52.14
11017;BME280;54687;50.800;6.772;2023-04-15T06:06:37;61092.91;;;-144.06;51.90
11017;BME280;54687;50.800;6.772;2023-04-15T06:09:04;61055.19;;;-144.06;51.76
11017;BME280;54687;50.800;6.772;2023-04-15T06:11:31;61042.59;;;-144.06;51.85
11017;BME280;54687;50.800;6.772;2023-04-15T06:13:58;61051.00;;;-144.06;51.97
11017;BME280;54687;50.800;6.772;2023-04-15T06:16:25;61015.34;;;-144.06;51.43
11017;BME280;54687;50.800;6.772;2023-04-15T06:18:52;61053.09;;;-144.06;51.24
11017;BME280;54687;50.800;6.772;2023-04-15T06:21:19;61038.41;;;-144.06;51.26
11017;BME280;54687;50.800;6.772;2023-04-15T06:23:46;61034.22;;;-144.06;50.88
11017;BME280;54687;50.800;6.772;2023-04-15T06:26:12;61025.84;;;-144.06;50.75
11017;BME280;54687;50.800;6.772;2023-04-15T06:28:39;61030.03;;;-144.06;50.55
11017;BME280;54687;50.800;6.772;2023-04-15T06:31:05;61038.41;;;-144.06;50.41
11017;BME280;54687;50.800;6.772;2023-04-15T06:33:32;61032.13;;;-144.06;50.66
11017;BME280;54687;50.800;6.772;2023-04-15T06:36:00;61053.09;;;-144.06;50.40
11017;BME280;54687;50.800;6.772;2023-04-15T06:38:27;61006.97;;;-144.06;50.23
11017;BME280;54687;50.800;6.772;2023-04-15T06:40:54;61015.34;;;-144.06;50.06
11017;BME280;54687;50.800;6.772;2023-04-15T06:43:20;61036.31;;;-144.06;49.71
11017;BME280;54687;50.800;6.772;2023-04-15T06:45:47;61034.22;;;-144.06;49.53
11017;BME280;54687;50.800;6.772;2023-04-15T06:48:13;61025.84;;;-144.06;49.39
11017;BME280;54687;50.800;6.772;2023-04-15T06:50:40;61017.44;;;-144.06;49.12
11017;BME280;54687;50.800;6.772;2023-04-15T06:53:08;61034.22;;;-144.06;49.65
11017;BME280;54687;50.800;6.772;2023-04-15T06:55:35;61000.69;;;-144.06;49.20
11017;BME280;54687;50.800;6.772;2023-04-15T06:58:01;61059.38;;;-144.06;48.89
11017;BME280;54687;50.800;6.772;2023-04-15T07:00:28;61030.03;;;-144.06;49.24
11017;BME280;54687;50.800;6.772;2023-04-15T07:02:54;61006.97;;;-144.06;48.63
11017;BME280;54687;50.800;6.772;2023-04-15T07:05:21;61044.69;;;-144.06;48.79
11017;BME280;54687;50.800;6.772;2023-04-15T07:07:48;61009.06;;;-144.06;48.76
11017;BME280;54687;50.800;6.772;2023-04-15T07:10:16;60983.91;;;-144.06;48.55
11017;BME280;54687;50.800;6.772;2023-04-15T07:12:42;60958.75;;;-144.06;48.42
11017;BME280;54687;50.800;6.772;2023-04-15T07:15:09;61055.19;;;-144.06;48.05
11017;BME280;54687;50.800;6.772;2023-04-15T07:17:36;61000.69;;;-144.06;48.27
11017;BME280;54687;50.800;6.772;2023-04-15T07:20:03;61021.63;;;-144.06;48.51
11017;BME280;54687;50.800;6.772;2023-04-15T07:22:30;60996.50;;;-144.06;49.04
11017;BME280;54687;50.800;6.772;2023-04-15T07:24:56;60992.28;;;-144.06;49.01
11017;BME280;54687;50.800;6.772;2023-04-15T07:27:24;61002.78;;;-144.06;48.83
11017;BME280;54687;50.800;6.772;2023-04-15T07:29:51;61030.03;;;-144.06;48.81
11017;BME280;54687;50.800;6.772;2023-04-15T07:32:18;61017.44;;;-144.06;48.74
11017;BME280;54687;50.800;6.772;2023-04-15T07:34:44;61015.34;;;-144.06;48.29
11017;BME280;54687;50.800;6.772;2023-04-15T07:37:11;60988.09;;;-144.06;47.64
11017;BME280;54687;50.800;6.772;2023-04-15T07:39:38;60979.72;;;-144.06;47.69
11017;BME280;54687;50.800;6.772;2023-04-15T07:42:04;60975.53;;;-144.06;47.69
11017;BME280;54687;50.800;6.772;2023-04-15T07:44:32;60996.50;;;-144.06;47.36
11017;BME280;54687;50.800;6.772;2023-04-15T07:46:59;60965.03;;;-144.06;46.78
11017;BME280;54687;50.800;6.772;2023-04-15T07:49:26;60971.34;;;-144.06;46.87
11017;BME280;54687;50.800;6.772;2023-04-15T07:51:52;60967.13;;;-144.06;46.13
11017;BME280;54687;50.800;6.772;2023-04-15T07:54:19;60946.19;;;-144.06;46.30
11017;BME280;54687;50.800;6.772;2023-04-15T07:56:45;60996.50;;;-144.06;46.16
11017;BME280;54687;50.800;6.772;2023-04-15T07:59:12;60929.41;;;-144.06;45.78
11017;BME280;54687;50.800;6.772;2023-04-15T08:01:41;60962.94;;;-144.06;45.62
11017;BME280;54687;50.800;6.772;2023-04-15T08:04:08;60979.72;;;-144.06;45.45
11017;BME280;54687;50.800;6.772;2023-04-15T08:06:35;60931.50;;;-144.06;45.25
11017;BME280;54687;50.800;6.772;2023-04-15T08:09:04;60954.56;;;-144.06;45.29
11017;BME280;54687;50.800;6.772;2023-04-15T08:11:30;60983.91;;;-144.06;45.13
11017;BME280;54687;50.800;6.772;2023-04-15T08:13:57;60954.56;;;-144.06;45.03
11017;BME280;54687;50.800;6.772;2023-04-15T08:16:24;60988.09;;;-144.06;45.18
11017;BME280;54687;50.800;6.772;2023-04-15T08:18:54;60967.13;;;-144.06;45.18
11017;BME280;54687;50.800;6.772;2023-04-15T08:21:21;60958.75;;;-144.06;45.42
11017;BME280;54687;50.800;6.772;2023-04-15T08:23:50;60950.38;;;-144.06;45.35
11017;BME280;54687;50.800;6.772;2023-04-15T08:26:17;60952.47;;;-144.06;45.16
11017;BME280;54687;50.800;6.772;2023-04-15T08:28:44;60912.63;;;-144.06;45.28
11017;BME280;54687;50.800;6.772;2023-04-15T08:31:11;60929.41;;;-144.06;45.07
11017;BME280;54687;50.800;6.772;2023-04-15T08:33:39;60954.56;;;-144.06;44.98
11017;BME280;54687;50.800;6.772;2023-04-15T08:36:07;60962.94;;;-144.06;44.79
11017;BME280;54687;50.800;6.772;2023-04-15T08:38:34;60931.50;;;-144.06;44.64
11017;BME280;54687;50.800;6.772;2023-04-15T08:41:06;60900.06;;;-144.06;44.64
11017;BME280;54687;50.800;6.772;2023-04-15T08:43:34;60897.97;;;-144.06;44.72
11017;BME280;54687;50.800;6.772;2023-04-15T08:46:05;60946.19;;;-144.06;44.98
11017;BME280;54687;50.800;6.772;2023-04-15T08:48:32;60944.09;;;-144.06;44.73
11017;BME280;54687;50.800;6.772;2023-04-15T08:51:00;60925.22;;;-144.06;44.99
11017;BME280;54687;50.800;6.772;2023-04-15T08:53:29;60925.22;;;-144.06;44.93
11017;BME280;54687;50.800;6.772;2023-04-15T08:55:56;60904.25;;;-144.06;44.96
11017;BME280;54687;50.800;6.772;2023-04-15T08:58:23;60918.94;;;-144.06;44.86
11017;BME280;54687;50.800;6.772;2023-04-15T09:00:51;60906.34;;;-144.06;44.06
11017;BME280;54687;50.800;6.772;2023-04-15T09:03:19;60944.09;;;-144.06;43.34
11017;BME280;54687;50.800;6.772;2023-04-15T09:05:47;60906.34;;;-144.06;42.09
11017;BME280;54687;50.800;6.772;2023-04-15T09:08:14;60916.84;;;-144.06;42.27
11017;BME280;54687;50.800;6.772;2023-04-15T09:10:42;60900.06;;;-144.06;42.40
11017;BME280;54687;50.800;6.772;2023-04-15T09:13:08;60912.63;;;-144.06;41.55
11017;BME280;54687;50.800;6.772;2023-04-15T09:15:37;60908.44;;;-144.06;40.89
11017;BME280;54687;50.800;6.772;2023-04-15T09:18:04;60931.50;;;-144.06;40.87
11017;BME280;54687;50.800;6.772;2023-04-15T09:20:37;60887.47;;;-144.06;41.21
11017;BME280;54687;50.800;6.772;2023-04-15T09:23:11;60889.59;;;-144.06;40.39
11017;BME280;54687;50.800;6.772;2023-04-15T09:25:39;60897.97;;;-144.06;39.49
11017;BME280;54687;50.800;6.772;2023-04-15T09:28:10;60866.53;;;-144.06;39.26
11017;BME280;54687;50.800;6.772;2023-04-15T09:30:37;60904.25;;;-144.06;38.51
11017;BME280;54687;50.800;6.772;2023-04-15T09:33:04;60879.09;;;-144.06;37.59
11017;BME280;54687;50.800;6.772;2023-04-15T09:35:33;60879.09;;;-144.06;37.17
11017;BME280;54687;50.800;6.772;2023-04-15T09:38:02;60866.53;;;-144.06;37.38
11017;BME280;54687;50.800;6.772;2023-04-15T09:40:33;60853.94;;;-144.06;38.04
11017;BME280;54687;50.800;6.772;2023-04-15T09:43:01;60870.72;;;-144.06;37.46
11017;BME280;54687;50.800;6.772;2023-04-15T09:45:30;60885.38;;;-144.06;37.84
11017;BME280;54687;50.800;6.772;2023-04-15T09:47:58;60858.13;;;-144.06;37.95
11017;BME280;54687;50.800;6.772;2023-04-15T09:50:27;60895.88;;;-144.06;37.15
11017;BME280;54687;50.800;6.772;2023-04-15T09:52:55;60891.69;;;-144.06;37.15
11017;BME280;54687;50.800;6.772;2023-04-15T09:55:21;60879.09;;;-144.06;35.75
11017;BME280;54687;50.800;6.772;2023-04-15T09:57:48;60895.88;;;-144.06;36.02
11017;BME280;54687;50.800;6.772;2023-04-15T10:00:15;60858.13;;;-144.06;36.01
11017;BME280;54687;50.800;6.772;2023-04-15T10:02:43;60856.03;;;-144.06;36.33
11017;BME280;54687;50.800;6.772;2023-04-15T10:05:13;60839.28;;;-144.06;36.74
11017;BME280;54687;50.800;6.772;2023-04-15T10:07:41;60889.59;;;-144.06;37.40
11017;BME280;54687;50.800;6.772;2023-04-15T10:10:09;60858.13;;;-144.06;36.47
11017;BME280;54687;50.800;6.772;2023-04-15T10:12:37;60860.25;;;-144.06;36.67
11017;BME280;54687;50.800;6.772;2023-04-15T10:15:13;60895.88;;;-144.06;37.07
11017;BME280;54687;50.800;6.772;2023-04-15T10:17:43;60830.88;;;-144.06;36.82
11017;BME280;54687;50.800;6.772;2023-04-15T10:20:11;60845.56;;;-144.06;36.25
11017;BME280;54687;50.800;6.772;2023-04-15T10:22:39;60833.00;;;-144.06;36.99
11017;BME280;54687;50.800;6.772;2023-04-15T10:25:08;60864.44;;;-144.06;36.37
11017;BME280;54687;50.800;6.772;2023-04-15T10:27:36;60906.34;;;-144.06;37.16
11017;BME280;54687;50.800;6.772;2023-04-15T10:30:05;60897.97;;;-144.06;37.59
11017;BME280;54687;50.800;6.772;2023-04-15T10:32:33;60858.13;;;-144.06;37.62
11017;BME280;54687;50.800;6.772;2023-04-15T10:35:02;60908.44;;;-144.06;37.31
11017;BME280;54687;50.800;6.772;2023-04-15T10:37:34;60853.94;;;-144.06;37.01
11017;BME280;54687;50.800;6.772;2023-04-15T10:40:22;60881.19;;;-144.06;37.33
11017;BME280;54687;50.800;6.772;2023-04-15T10:42:49;60862.34;;;-144.06;37.48
11017;BME280;54687;50.800;6.772;2023-04-15T10:45:17;60868.63;;;-144.06;37.79
11017;BME280;54687;50.800;6.772;2023-04-15T10:47:44;60858.13;;;-144.06;37.82
11017;BME280;54687;50.800;6.772;2023-04-15T10:50:12;60870.72;;;-144.06;37.50
11017;BME280;54687;50.800;6.772;2023-04-15T10:52:40;60858.13;;;-144.06;37.31
11017;BME280;54687;50.800;6.772;2023-04-15T10:55:12;60866.53;;;-144.06;37.41
11017;BME280;54687;50.800;6.772;2023-04-15T10:57:40;60849.75;;;-144.06;37.21
11017;BME280;54687;50.800;6.772;2023-04-15T11:00:12;60849.75;;;-144.06;37.27
11017;BME280;54687;50.800;6.772;2023-04-15T11:02:40;60858.13;;;-144.06;37.23
11017;BME280;54687;50.800;6.772;2023-04-15T11:05:08;60833.00;;;-144.06;37.44
11017;BME280;54687;50.800;6.772;2023-04-15T11:07:49;60826.69;;;-144.06;37.02
11017;BME280;54687;50.800;6.772;2023-04-15T11:10:50;60824.59;;;-144.06;36.80
11017;BME280;54687;50.800;6.772;2023-04-15T11:13:21;60866.53;;;-144.06;37.46
11017;BME280;54687;50.800;6.772;2023-04-15T11:15:55;60858.13;;;-144.06;37.80
11017;BME280;54687;50.800;6.772;2023-04-15T11:18:24;60845.56;;;-144.06;37.60
11017;BME280;54687;50.800;6.772;2023-04-15T11:20:52;60843.47;;;-144.06;37.79
11017;BME280;54687;50.800;6.772;2023-04-15T11:23:28;60868.63;;;-144.06;37.53
11017;BME280;54687;50.800;6.772;2023-04-15T11:25:55;60833.00;;;-144.06;37.33
11017;BME280;54687;50.800;6.772;2023-04-15T11:28:25;60912.63;;;-144.06;37.58
11017;BME280;54687;50.800;6.772;2023-04-15T11:30:51;60822.50;;;-144.06;37.48
11017;BME280;54687;50.800;6.772;2023-04-15T11:33:20;60862.34;;;-144.06;37.48
11017;BME280;54687;50.800;6.772;2023-04-15T11:35:47;60874.91;;;-144.06;37.26
11017;BME280;54687;50.800;6.772;2023-04-15T11:38:15;60870.72;;;-144.06;37.47
11017;BME280;54687;50.800;6.772;2023-04-15T11:40:43;60837.19;;;-144.06;37.53
11017;BME280;54687;50.800;6.772;2023-04-15T11:43:11;60830.88;;;-144.06;37.48
11017;BME280;54687;50.800;6.772;2023-04-15T11:45:48;60793.16;;;-144.06;37.69
11017;BME280;54687;50.800;6.772;2023-04-15T11:48:15;60833.00;;;-144.06;37.82
11017;BME280;54687;50.800;6.772;2023-04-15T11:50:42;60887.47;;;-144.06;38.37
11017;BME280;54687;50.800;6.772;2023-04-15T11:53:10;60858.13;;;-144.06;38.28
11017;BME280;54687;50.800;6.772;2023-04-15T11:55:45;60824.59;;;-144.06;38.46
11017;BME280;54687;50.800;6.772;2023-04-15T11:58:14;60853.94;;;-144.06;38.59
11017;BME280;54687;50.800;6.772;2023-04-15T12:00:45;60866.53;;;-144.06;38.73
11017;BME280;54687;50.800;6.772;2023-04-15T12:03:17;60841.38;;;-144.06;38.39
11017;BME280;54687;50.800;6.772;2023-04-15T12:06:10;60799.44;;;-144.06;38.14
11017;BME280;54687;50.800;6.772;2023-04-15T12:09:00;60870.72;;;-144.06;37.56
11017;BME280;54687;50.800;6.772;2023-04-15T12:11:30;60837.19;;;-144.06;37.64
11017;BME280;54687;50.800;6.772;2023-04-15T12:13:58;60833.00;;;-144.06;37.52
11017;BME280;54687;50.800;6.772;2023-04-15T12:16:28;60833.00;;;-144.06;37.32
11017;BME280;54687;50.800;6.772;2023-04-15T12:18:56;60820.41;;;-144.06;37.26
11017;BME280;54687;50.800;6.772;2023-04-15T12:21:24;60845.56;;;-144.06;37.04
11017;BME280;54687;50.800;6.772;2023-04-15T12:23:53;60837.19;;;-144.06;37.58
11017;BME280;54687;50.800;6.772;2023-04-15T12:26:26;60837.19;;;-144.06;38.01
11017;BME280;54687;50.800;6.772;2023-04-15T12:28:55;60895.88;;;-144.06;38.49
11017;BME280;54687;50.800;6.772;2023-04-15T12:31:26;60866.53;;;-144.06;39.12
11017;BME280;54687;50.800;6.772;2023-04-15T12:33:54;60868.63;;;-144.06;39.05
11017;BME280;54687;50.800;6.772;2023-04-15T12:36:20;60835.09;;;-144.06;39.03
11017;BME280;54687;50.800;6.772;2023-04-15T12:38:47;60839.28;;;-144.06;39.00
11017;BME280;54687;50.800;6.772;2023-04-15T12:41:13;60818.31;;;-144.06;39.56
11017;BME280;54687;50.800;6.772;2023-04-15T12:43:42;60833.00;;;-144.06;39.64